LVNO2: Poteau River At Loving, OK

Data processed at Fri Mar 09 2018 23:52


All information presented herein is the property of the government of the United States of America and may be revised or deleted at any time without prior notice.
Dissemination of this information without the expressed written consent of the Public Affairs Office, Tulsa District U.S. Army Corps of Engineers is strictly prohibited.
These data are gathered electronically and, as presented, have not undergone any form of quality control. These data are not guaranteed to be valid or correct.
Go to home page.
Go to station list.

Upstream stations:

Downstream station:
Previous Day
Next Day
Current Day
    
SHEF ID:       LVNO2     Poteau River at Loving, OK
STATION TYPE:  

                STAGE  RIV-FLOW  BAT-LOAD
                   ft       cfs      volt
              Ccp-Rev   Ccp-Rev   Ccp-Rev
(US/Central)
03/07 00:00     11.98       741     12.89
03/07 01:00     11.97       737     12.83
03/07 02:00     11.96       733     12.83
03/07 03:00     11.95       729     12.77
03/07 04:00     11.94       725     12.77
03/07 05:00     11.92       718     12.71
03/07 06:00     11.91       714     12.71
03/07 07:00     11.89       706     12.71
03/07 08:00     11.89       706     13.00
03/07 09:00     11.86       695     14.06
03/07 10:00     11.85       691     14.30
03/07 11:00     11.83       683     14.53
03/07 12:00     11.80       672     14.65
03/07 13:00     11.79       668     14.59
03/07 14:00     11.78       665     13.83
03/07 15:00     11.76       657     13.77
03/07 16:00     11.75       653     13.71
03/07 17:00     11.73       646     13.59
03/07 18:00     11.72       642     13.42
03/07 19:00     11.71       639     13.24
03/07 20:00     11.71       639     13.12
03/07 21:00     11.68       628     13.00
03/07 22:00     11.69       632     12.95
03/07 23:00     11.68       628     12.89